MMTP

Details ICAO MMTP (TAP)
Name TAPACHULA INTL
Region Mexico
Timezone America/Mexico_City (UTC-5.0)
Plans Departing 23
Arriving 20
Stats Elevation 97 ft / 30 m (AMSL)
Location 14.794337° -92.370024°
Runways 1
Magnetic Variation 1.912° E
Sunrise 2018-06-25 11:43:20 UTC / 2018-06-25 06:43:20 Local
Sunset 2018-06-26 00:43:21 UTC / 2018-06-25 19:43:21 Local
Advertisement - Login to hide

Runways

ID Width Length Bearing (true) Bearing (mag) Surface Threshold Offset Overrun Length
05 148 ft / 45 m 6,577 ft / 2,005 m 55.38° 53.47° Asphalt 0 ft / 0 m 198 ft / 60 m
23 148 ft / 45 m 6,577 ft / 2,005 m 235.38° 233.47° Asphalt 0 ft / 0 m 198 ft / 60 m

Map

Weather


0- 5 10 15 20 25 30 35+ Temperature / ° C

Clouds and Precipitation
Forecast for 2018-06-25 12:00 UTC. Updated 40 minutes ago

Ground ~20,000 ft ~40,000 ft Winds

METAR

MMTP 250959Z RTD 00000KT 10SM BKN200 23/23 A2986 RMK 8/006

TAF

TAF MMTP 242309Z 2500/2606 03005KT 6SM HZ SCT030 BKN200 TEMPO 2500/2504 6SM -TSRA BKN020CB FM250600 00000KT 6SM HZ SCT020 SCT100 SCT200 FM251800 23010KT P6SM SCT030 SCT200 TEMPO 2600/2604 6SM TSRA BKN020CBN

Frequencies

Tower 118.20 MHz TWR
Warning: Do not use this data for real-world aviation or navigation. No guarantee of current accuracy is given.